Toluca, Illinois
Current Conditions -  °F | °C
As of 5:35 PM on Thursday 18 Dec 2014 (Local Time) from KC75 Reporting Station
Broken Clouds Broken Clouds  
Wind Chill: 25°   Ceiling: 12000
Heat Index: 25°   Visibility: 10mi
Dew Point: 19°   Wind: 3mph
Humidity: 78%   Direction: 10°N
Pressure: 30.27"   Gusts: NA
Location:  41°N, 89.13°W
Report Text: KC75 182335Z AUTO 01003KT 10SM SCT021 BKN120 M04/M07 A3027 RMK AO2 T10371070
Loading
Personal Weather Stations






























Interactive Weather Map New forecast layout! Learn more

10-Day Weather Forecast

Advertisements
Track Severe Weather on mobile